createdAt,value
2022-10-22T00:01:36.048Z,6.88
2022-10-22T00:04:03.739Z,6.90
2022-10-22T00:06:31.299Z,6.78
2022-10-22T00:08:59.058Z,6.72
2022-10-22T00:11:26.694Z,6.75
2022-10-22T00:13:54.874Z,6.68
2022-10-22T00:16:22.346Z,6.71
2022-10-22T00:18:49.946Z,6.63
2022-10-22T00:21:17.660Z,6.59
2022-10-22T00:23:45.365Z,6.77
2022-10-22T00:26:13.228Z,6.73
2022-10-22T00:28:41.071Z,6.61
2022-10-22T00:31:08.700Z,6.67
2022-10-22T00:33:39.081Z,6.75
2022-10-22T00:36:06.897Z,6.68
2022-10-22T00:38:34.910Z,6.57
2022-10-22T00:43:56.005Z,6.61
2022-10-22T00:46:23.628Z,6.67
2022-10-22T00:48:52.511Z,6.68
2022-10-22T00:51:23.330Z,6.71
2022-10-22T00:54:00.632Z,6.65
2022-10-22T00:56:28.138Z,6.68
2022-10-22T00:59:02.282Z,6.81
2022-10-22T01:01:32.611Z,6.80
2022-10-22T01:04:03.150Z,6.67
2022-10-22T01:06:33.184Z,6.73
2022-10-22T01:09:06.763Z,6.68
2022-10-22T01:12:02.945Z,6.72
2022-10-22T01:14:46.325Z,6.58
2022-10-22T01:17:32.196Z,6.53
2022-10-22T01:20:22.388Z,6.53
2022-10-22T01:23:13.697Z,6.39
2022-10-22T01:25:58.754Z,6.57
2022-10-22T01:28:43.150Z,6.53
2022-10-22T01:31:13.641Z,6.55
2022-10-22T01:34:30.829Z,6.57
2022-10-22T01:37:01.815Z,6.46
2022-10-22T01:39:31.630Z,6.48
2022-10-22T01:41:59.821Z,6.43
2022-10-22T01:47:23.811Z,6.49
2022-10-22T01:50:28.621Z,6.52
2022-10-22T01:53:17.476Z,6.52
2022-10-22T01:56:00.851Z,6.55
2022-10-22T01:58:54.469Z,6.71
2022-10-22T02:01:42.371Z,6.75
2022-10-22T02:04:19.017Z,6.76
2022-10-22T02:06:49.969Z,6.71
2022-10-22T02:09:20.201Z,6.71
2022-10-22T02:11:49.140Z,6.66
2022-10-22T02:14:19.349Z,6.59
2022-10-22T02:16:49.476Z,6.63
2022-10-22T02:19:23.511Z,6.71
2022-10-22T02:21:51.754Z,6.78
2022-10-22T02:24:20.915Z,6.73
2022-10-22T02:27:13.295Z,6.63
2022-10-22T02:29:52.560Z,6.80
2022-10-22T02:32:24.714Z,6.66
2022-10-22T02:34:55.241Z,6.55
2022-10-22T02:37:24.810Z,6.45
2022-10-22T02:39:53.605Z,6.45
2022-10-22T02:42:21.093Z,6.50
2022-10-22T02:44:48.593Z,6.60
2022-10-22T02:47:16.208Z,6.70
2022-10-22T02:49:43.704Z,6.61
2022-10-22T02:52:11.196Z,6.64
2022-10-22T02:54:39.652Z,6.70
2022-10-22T02:57:07.313Z,6.60
2022-10-22T02:59:34.981Z,6.38
2022-10-22T03:02:02.448Z,6.44
2022-10-22T03:04:29.964Z,6.57
2022-10-22T03:06:57.454Z,6.55
2022-10-22T03:09:25.102Z,6.59
2022-10-22T03:11:52.931Z,6.72
2022-10-22T03:14:20.532Z,6.80
2022-10-22T03:16:48.049Z,6.64
2022-10-22T03:19:18.631Z,6.73
2022-10-22T03:21:53.400Z,6.68
2022-10-22T03:24:49.167Z,6.66
2022-10-22T03:27:20.160Z,6.64
2022-10-22T03:29:51.412Z,6.77
2022-10-22T03:32:19.910Z,6.75
2022-10-22T03:34:47.572Z,6.75
2022-10-22T03:37:15.260Z,6.68
2022-10-22T03:39:42.822Z,6.88
2022-10-22T03:42:10.934Z,6.90
2022-10-22T03:44:46.441Z,6.81
2022-10-22T03:47:13.871Z,6.77
2022-10-22T03:49:42.648Z,6.79
2022-10-22T03:52:14.448Z,6.88
2022-10-22T03:54:43.030Z,6.97
2022-10-22T03:57:11.666Z,6.95
2022-10-22T03:59:42.627Z,6.84
2022-10-22T04:02:11.904Z,7.00
2022-10-22T04:04:40.111Z,7.21
2022-10-22T04:07:09.602Z,11.57
2022-10-22T04:09:37.667Z,12.22
2022-10-22T04:12:08.540Z,13.32
2022-10-22T04:14:36.096Z,12.88
2022-10-22T04:17:06.667Z,11.52
2022-10-22T04:19:34.210Z,12.17
2022-10-22T04:22:01.739Z,12.58
2022-10-22T04:24:31.112Z,11.10
2022-10-22T04:27:01.720Z,12.48
2022-10-22T04:29:29.251Z,13.32
2022-10-22T04:31:56.668Z,12.94
2022-10-22T04:34:28.072Z,12.53
2022-10-22T04:36:55.699Z,10.42
2022-10-22T04:39:23.454Z,8.82
2022-10-22T04:41:53.446Z,8.00
2022-10-22T04:44:21.010Z,7.62
2022-10-22T04:46:48.664Z,7.44
2022-10-22T04:49:16.080Z,7.33
2022-10-22T04:51:43.595Z,7.12
2022-10-22T04:54:11.097Z,7.07
2022-10-22T04:56:39.106Z,6.98
2022-10-22T04:59:09.033Z,6.99
2022-10-22T05:01:44.434Z,7.28
2022-10-22T05:04:14.877Z,6.92
2022-10-22T05:06:42.754Z,6.93
2022-10-22T05:09:17.781Z,6.89
2022-10-22T05:11:49.014Z,6.77
2022-10-22T05:14:22.531Z,6.77
2022-10-22T05:16:50.823Z,6.86
2022-10-22T05:19:20.000Z,7.02
2022-10-22T05:21:47.745Z,7.09
2022-10-22T05:24:15.294Z,7.01
2022-10-22T05:26:42.807Z,7.00
2022-10-22T05:29:10.225Z,7.02
2022-10-22T05:31:38.115Z,6.95
2022-10-22T05:34:05.582Z,7.04
2022-10-22T05:36:32.983Z,7.14
2022-10-22T05:39:00.326Z,7.11
2022-10-22T05:41:29.166Z,7.12
2022-10-22T05:43:58.352Z,7.17
2022-10-22T05:46:29.011Z,7.29
2022-10-22T05:48:59.344Z,7.34
2022-10-22T05:51:29.017Z,7.44
2022-10-22T05:53:59.616Z,7.46
2022-10-22T05:56:29.140Z,7.45
2022-10-22T05:58:57.169Z,7.49
2022-10-22T06:01:30.243Z,7.53
2022-10-22T06:04:00.106Z,7.63
2022-10-22T06:06:32.222Z,7.60
2022-10-22T06:09:22.763Z,7.65
2022-10-22T06:11:53.237Z,7.75
2022-10-22T06:14:21.897Z,7.82
2022-10-22T06:16:49.587Z,7.82
2022-10-22T06:19:19.817Z,7.82
2022-10-22T06:21:47.886Z,7.79
2022-10-22T06:24:15.987Z,7.76
2022-10-22T06:26:43.419Z,8.03
2022-10-22T06:29:10.933Z,9.31
2022-10-22T06:31:38.879Z,9.48
2022-10-22T06:34:08.790Z,9.14
2022-10-22T06:36:36.543Z,9.41
2022-10-22T06:39:05.361Z,9.06
2022-10-22T06:41:32.917Z,8.79
2022-10-22T06:44:00.316Z,8.78
2022-10-22T06:46:31.688Z,8.60
2022-10-22T06:49:01.726Z,8.68
2022-10-22T06:51:33.662Z,8.57
2022-10-22T06:54:02.272Z,8.48
2022-10-22T06:56:31.379Z,8.66
2022-10-22T06:59:00.847Z,8.95
2022-10-22T07:01:32.449Z,8.80
2022-10-22T07:04:01.273Z,8.96
2022-10-22T07:06:30.052Z,9.10
2022-10-22T07:09:00.512Z,9.19
2022-10-22T07:11:31.406Z,9.42
2022-10-22T07:14:00.832Z,9.56
2022-10-22T07:16:32.149Z,9.51
2022-10-22T07:19:02.939Z,9.67
2022-10-22T07:21:32.828Z,9.89
2022-10-22T07:24:05.353Z,10.01
2022-10-22T07:26:33.772Z,10.23
2022-10-22T07:29:04.971Z,10.41
2022-10-22T07:31:33.261Z,10.42
2022-10-22T07:34:02.806Z,10.48
2022-10-22T07:36:32.572Z,10.58
2022-10-22T07:39:00.798Z,10.58
2022-10-22T07:41:33.842Z,10.69
2022-10-22T07:44:03.865Z,10.73
2022-10-22T07:46:36.875Z,10.77
2022-10-22T07:49:06.800Z,10.81
2022-10-22T07:51:35.731Z,10.89
2022-10-22T07:54:04.901Z,10.96
2022-10-22T07:56:34.981Z,11.03
2022-10-22T07:59:04.066Z,11.08
2022-10-22T08:01:32.713Z,11.01
2022-10-22T08:04:01.448Z,11.14
2022-10-22T08:06:37.005Z,11.26
2022-10-22T08:09:05.742Z,11.28
2022-10-22T08:11:36.755Z,11.32
2022-10-22T08:14:07.287Z,11.46
2022-10-22T08:16:37.481Z,11.62
2022-10-22T08:19:20.123Z,11.90
2022-10-22T08:21:49.356Z,11.77
2022-10-22T08:24:19.007Z,11.70
2022-10-22T08:26:51.842Z,12.01
2022-10-22T08:29:20.685Z,12.08
2022-10-22T08:31:54.937Z,12.34
2022-10-22T08:34:28.000Z,12.27
2022-10-22T08:36:56.652Z,12.46
2022-10-22T08:39:28.910Z,12.56
2022-10-22T08:42:17.241Z,12.56
2022-10-22T08:45:13.856Z,12.43
2022-10-22T08:48:17.231Z,12.66
2022-10-22T08:50:55.664Z,12.88
2022-10-22T08:53:45.748Z,13.25
2022-10-22T08:56:15.938Z,13.29
2022-10-22T08:59:21.049Z,13.43
2022-10-22T09:01:54.219Z,13.49
2022-10-22T09:04:41.124Z,13.67
2022-10-22T09:07:14.406Z,13.89
2022-10-22T09:09:49.525Z,14.04
2022-10-22T09:12:30.570Z,14.27
2022-10-22T09:15:02.380Z,14.32
2022-10-22T09:17:56.217Z,14.65
2022-10-22T09:20:28.489Z,14.69
2022-10-22T09:23:25.872Z,16.00
2022-10-22T09:25:57.353Z,16.88
2022-10-22T09:28:27.228Z,17.35
2022-10-22T09:31:03.831Z,17.22
2022-10-22T09:33:31.967Z,16.87
2022-10-22T09:36:03.836Z,16.78
2022-10-22T09:38:40.667Z,16.66
2022-10-22T09:41:09.304Z,16.96
2022-10-22T09:43:37.428Z,16.00
2022-10-22T09:46:15.623Z,15.94
2022-10-22T09:49:18.678Z,15.51
2022-10-22T09:51:54.226Z,15.23
2022-10-22T09:54:27.057Z,15.13
2022-10-22T09:57:14.034Z,15.01
2022-10-22T09:59:47.717Z,14.97
2022-10-22T10:02:37.121Z,14.92
2022-10-22T10:05:17.655Z,14.98
2022-10-22T10:07:49.282Z,15.12
2022-10-22T10:10:27.971Z,15.23
2022-10-22T10:13:19.587Z,15.24
2022-10-22T10:16:40.702Z,15.43
2022-10-22T10:19:26.804Z,15.42
2022-10-22T10:22:16.021Z,15.48
2022-10-22T10:25:07.707Z,15.55
2022-10-22T10:27:49.300Z,15.54
2022-10-22T10:30:23.187Z,15.60
2022-10-22T10:32:56.074Z,15.68
2022-10-22T10:35:30.174Z,15.68
2022-10-22T10:38:11.407Z,15.68
2022-10-22T10:40:48.153Z,16.03
2022-10-22T10:43:27.983Z,15.89
2022-10-22T10:46:29.534Z,15.73
2022-10-22T10:49:08.366Z,15.63
2022-10-22T10:51:49.741Z,15.58
2022-10-22T10:54:20.155Z,15.56
2022-10-22T10:56:56.754Z,15.58
2022-10-22T10:59:45.988Z,15.78
2022-10-22T11:02:53.755Z,15.92
2022-10-22T11:05:29.049Z,16.11
2022-10-22T11:08:01.245Z,16.07
2022-10-22T11:10:42.395Z,15.97
2022-10-22T11:14:02.485Z,16.01
2022-10-22T11:16:43.818Z,15.94
2022-10-22T11:19:49.636Z,15.93
2022-10-22T11:23:00.291Z,15.99
2022-10-22T11:25:44.546Z,15.97
2022-10-22T11:28:23.916Z,15.91
2022-10-22T11:30:59.526Z,15.89
2022-10-22T11:33:36.713Z,16.07
2022-10-22T11:36:06.057Z,16.10
2022-10-22T11:38:35.060Z,16.13
2022-10-22T11:41:07.550Z,16.05
2022-10-22T11:43:55.348Z,16.11
2022-10-22T11:46:23.187Z,16.04
2022-10-22T11:49:05.275Z,15.96
2022-10-22T11:51:38.823Z,15.90
2022-10-22T11:54:42.015Z,15.95
2022-10-22T11:57:15.468Z,15.92
2022-10-22T11:59:51.776Z,15.95
2022-10-22T12:02:28.407Z,15.96
2022-10-22T12:05:18.889Z,16.00
2022-10-22T12:07:59.288Z,16.05
2022-10-22T12:10:35.518Z,16.02
2022-10-22T12:13:27.903Z,16.05
2022-10-22T12:15:59.446Z,16.18
2022-10-22T12:18:35.438Z,16.14
2022-10-22T12:21:03.089Z,16.11
2022-10-22T12:23:36.447Z,16.13
2022-10-22T12:26:06.934Z,16.14
2022-10-22T12:28:43.568Z,16.22
2022-10-22T12:31:17.830Z,16.27
2022-10-22T12:33:48.103Z,16.35
2022-10-22T12:36:20.291Z,16.48
2022-10-22T12:38:50.725Z,16.54
2022-10-22T12:41:18.202Z,16.52
2022-10-22T12:43:45.901Z,16.65
2022-10-22T12:46:16.007Z,16.65
2022-10-22T12:48:45.688Z,16.64
2022-10-22T12:51:18.838Z,16.66
2022-10-22T12:53:51.772Z,16.77
2022-10-22T12:56:25.656Z,16.79
2022-10-22T12:58:57.063Z,16.77
2022-10-22T13:01:28.034Z,16.76
2022-10-22T13:04:18.475Z,16.71
2022-10-22T13:06:48.924Z,16.69
2022-10-22T13:09:23.813Z,16.62
2022-10-22T13:12:04.014Z,16.59
2022-10-22T13:14:34.722Z,16.67
2022-10-22T13:17:09.559Z,16.64
2022-10-22T13:19:47.942Z,16.61
2022-10-22T13:22:32.229Z,16.54
2022-10-22T13:25:17.359Z,16.58
2022-10-22T13:28:00.946Z,16.55
2022-10-22T13:30:34.976Z,16.56
2022-10-22T13:33:05.625Z,16.63
2022-10-22T13:35:36.109Z,16.62
2022-10-22T13:38:16.651Z,16.66
2022-10-22T13:40:44.248Z,16.61
2022-10-22T13:43:12.516Z,16.58
2022-10-22T13:45:40.358Z,16.52
2022-10-22T13:48:16.380Z,16.50
2022-10-22T13:50:46.907Z,16.47
2022-10-22T13:53:19.127Z,16.44
2022-10-22T13:55:50.020Z,16.46
2022-10-22T13:58:22.544Z,16.47
2022-10-22T14:00:53.698Z,16.46
2022-10-22T14:03:29.258Z,16.44
2022-10-22T14:06:03.009Z,16.41
2022-10-22T14:08:30.689Z,16.45
2022-10-22T14:10:58.199Z,16.44
2022-10-22T14:13:26.273Z,16.39
2022-10-22T14:16:00.408Z,16.30
2022-10-22T14:18:28.754Z,16.27
2022-10-22T14:21:08.480Z,16.29
2022-10-22T14:23:43.580Z,16.23
2022-10-22T14:26:33.168Z,16.37
2022-10-22T14:29:09.939Z,16.35
2022-10-22T14:31:51.085Z,16.30
2022-10-22T14:34:18.679Z,16.27
2022-10-22T14:37:07.500Z,16.24
2022-10-22T14:39:38.883Z,16.18
2022-10-22T14:42:22.719Z,16.12
2022-10-22T14:44:59.085Z,16.07
2022-10-22T14:50:24.113Z,15.98
2022-10-22T14:52:55.048Z,15.95
2022-10-22T14:55:23.371Z,15.89
2022-10-22T14:57:54.723Z,15.87
2022-10-22T15:00:29.895Z,15.90
2022-10-22T15:03:09.574Z,15.95
2022-10-22T15:05:44.995Z,15.91
2022-10-22T15:08:16.004Z,16.44
2022-10-22T15:11:04.282Z,16.14
2022-10-22T15:13:34.814Z,15.99
2022-10-22T15:16:06.897Z,15.87
2022-10-22T15:18:38.137Z,15.80
2022-10-22T15:21:13.854Z,15.73
2022-10-22T15:23:41.772Z,15.66
2022-10-22T15:26:17.144Z,15.63
2022-10-22T15:28:45.344Z,15.58
2022-10-22T15:31:45.879Z,15.52
2022-10-22T15:34:25.297Z,15.45
2022-10-22T15:36:58.875Z,15.41
2022-10-22T15:39:30.487Z,15.45
2022-10-22T15:42:03.946Z,15.38
2022-10-22T15:44:35.632Z,15.37
2022-10-22T15:47:07.716Z,15.20
2022-10-22T15:49:44.554Z,15.14
2022-10-22T15:52:12.081Z,15.18
2022-10-22T15:54:46.018Z,15.09
2022-10-22T15:57:19.437Z,15.09
2022-10-22T15:59:47.705Z,15.02
2022-10-22T16:02:15.155Z,15.01
2022-10-22T16:04:42.586Z,14.99
2022-10-22T16:07:17.275Z,14.96
2022-10-22T16:09:51.014Z,14.91
2022-10-22T16:12:18.498Z,14.80
2022-10-22T16:14:50.477Z,14.66
2022-10-22T16:17:24.193Z,14.61
2022-10-22T16:19:51.672Z,14.47
2022-10-22T16:22:19.323Z,14.39
2022-10-22T16:24:53.499Z,14.42
2022-10-22T16:27:21.114Z,14.40
2022-10-22T16:29:49.037Z,14.28
2022-10-22T16:32:16.796Z,14.27
2022-10-22T16:34:44.753Z,14.33
2022-10-22T16:37:12.392Z,14.31
2022-10-22T16:39:42.569Z,14.16
2022-10-22T16:42:15.681Z,14.18
2022-10-22T16:44:46.202Z,14.32
2022-10-22T16:47:14.254Z,14.25
2022-10-22T16:49:41.793Z,14.09
2022-10-22T16:52:09.294Z,14.07
2022-10-22T16:54:36.689Z,14.15
2022-10-22T16:57:12.336Z,13.96
2022-10-22T16:59:42.877Z,13.92
2022-10-22T17:02:18.392Z,13.90
2022-10-22T17:04:51.517Z,13.93
2022-10-22T17:07:22.471Z,13.97
2022-10-22T17:09:52.969Z,13.82
2022-10-22T17:12:32.244Z,13.84
2022-10-22T17:15:02.035Z,13.84
2022-10-22T17:17:38.359Z,13.75
2022-10-22T17:20:15.357Z,13.83
2022-10-22T17:22:51.814Z,13.77
2022-10-22T17:25:29.064Z,13.76
2022-10-22T17:28:05.621Z,13.72
2022-10-22T17:30:44.433Z,13.69
2022-10-22T17:33:17.959Z,13.77
2022-10-22T17:35:54.444Z,13.74
2022-10-22T17:38:25.402Z,13.75
2022-10-22T17:40:58.545Z,13.67
2022-10-22T17:43:34.237Z,13.60
2022-10-22T17:46:25.872Z,13.58
2022-10-22T17:49:02.209Z,13.58
2022-10-22T17:51:30.882Z,13.56
2022-10-22T17:53:59.237Z,13.58
2022-10-22T17:56:32.210Z,13.53
2022-10-22T17:59:08.392Z,13.61
2022-10-22T18:01:37.769Z,13.56
2022-10-22T18:04:07.924Z,13.56
2022-10-22T18:06:38.196Z,13.48
2022-10-22T18:09:17.267Z,13.46
2022-10-22T18:11:46.669Z,13.42
2022-10-22T18:14:16.581Z,15.39
2022-10-22T18:16:43.915Z,14.22
2022-10-22T18:19:14.286Z,13.86
2022-10-22T18:21:41.850Z,13.62
2022-10-22T18:24:16.902Z,13.52
2022-10-22T18:26:47.563Z,13.40
2022-10-22T18:29:17.437Z,13.36
2022-10-22T18:31:46.702Z,13.36
2022-10-22T18:34:16.640Z,13.31
2022-10-22T18:36:46.602Z,13.23
2022-10-22T18:39:15.380Z,13.18
2022-10-22T18:41:43.973Z,13.17
2022-10-22T18:44:13.756Z,13.13
2022-10-22T18:46:41.308Z,13.14
2022-10-22T18:49:13.436Z,13.13
2022-10-22T18:51:41.003Z,13.04
2022-10-22T18:54:22.538Z,13.08
2022-10-22T18:56:52.309Z,13.18
2022-10-22T18:59:25.862Z,13.25
2022-10-22T19:01:54.761Z,13.09
2022-10-22T19:04:22.235Z,13.11
2022-10-22T19:06:50.099Z,13.08
2022-10-22T19:09:17.859Z,13.02
2022-10-22T19:11:49.273Z,12.98
2022-10-22T19:14:16.850Z,13.01
2022-10-22T19:16:44.350Z,13.10
2022-10-22T19:19:16.645Z,12.94
2022-10-22T19:21:44.243Z,13.01
2022-10-22T19:24:13.877Z,13.01
2022-10-22T19:26:42.004Z,13.13
2022-10-22T19:29:10.051Z,12.97
2022-10-22T19:31:40.288Z,12.93
2022-10-22T19:34:07.942Z,13.07
2022-10-22T19:36:35.480Z,12.93
2022-10-22T19:39:04.307Z,12.89
2022-10-22T19:41:32.740Z,12.85
2022-10-22T19:44:00.824Z,12.87
2022-10-22T19:46:29.498Z,12.88
2022-10-22T19:48:56.873Z,12.88
2022-10-22T19:51:29.437Z,12.86
2022-10-22T19:54:03.343Z,12.91
2022-10-22T19:56:32.108Z,12.85
2022-10-22T19:59:00.098Z,12.85
2022-10-22T20:01:27.804Z,12.89
2022-10-22T20:03:55.598Z,12.87
2022-10-22T20:06:23.502Z,12.78
2022-10-22T20:08:56.139Z,12.68
2022-10-22T20:11:29.599Z,12.69
2022-10-22T20:13:59.035Z,12.74
2022-10-22T20:16:28.099Z,12.68
2022-10-22T20:18:58.779Z,12.79
2022-10-22T20:21:26.586Z,12.68
2022-10-22T20:23:55.282Z,12.61
2022-10-22T20:26:23.159Z,12.66
2022-10-22T20:28:52.189Z,12.59
2022-10-22T20:31:21.281Z,12.58
2022-10-22T20:33:50.207Z,12.54
2022-10-22T20:36:20.556Z,12.54
2022-10-22T20:38:48.801Z,12.53
2022-10-22T20:41:22.421Z,12.54
2022-10-22T20:43:51.780Z,12.53
2022-10-22T20:46:25.632Z,12.48
2022-10-22T20:48:55.439Z,12.45
2022-10-22T20:51:22.945Z,12.36
2022-10-22T20:53:53.341Z,12.32
2022-10-22T20:56:21.338Z,12.32
2022-10-22T20:58:49.423Z,12.30
2022-10-22T21:01:19.040Z,12.28
2022-10-22T21:03:46.697Z,12.26
2022-10-22T21:06:18.459Z,12.21
2022-10-22T21:08:50.152Z,12.18
2022-10-22T21:11:18.591Z,12.12
2022-10-22T21:13:47.076Z,12.13
2022-10-22T21:16:17.320Z,12.11
2022-10-22T21:18:46.134Z,12.05
2022-10-22T21:21:13.877Z,11.99
2022-10-22T21:23:41.475Z,11.97
2022-10-22T21:26:09.162Z,11.85
2022-10-22T21:28:37.705Z,11.95
2022-10-22T21:31:07.461Z,11.92
2022-10-22T21:33:40.144Z,11.83
2022-10-22T21:36:07.938Z,11.80
2022-10-22T21:38:36.719Z,11.87
2022-10-22T21:41:10.215Z,11.81
2022-10-22T21:43:39.039Z,11.87
2022-10-22T21:46:09.065Z,11.86
2022-10-22T21:48:37.869Z,11.72
2022-10-22T21:51:17.102Z,11.70
2022-10-22T21:53:45.249Z,11.60
2022-10-22T21:56:30.985Z,11.68
2022-10-22T21:58:58.872Z,11.61
2022-10-22T22:01:26.922Z,11.62
2022-10-22T22:03:54.863Z,11.58
2022-10-22T22:06:24.160Z,11.57
2022-10-22T22:08:53.419Z,11.61
2022-10-22T22:11:24.040Z,11.49
2022-10-22T22:13:53.100Z,11.47
2022-10-22T22:16:27.153Z,11.42
2022-10-22T22:18:58.699Z,11.33
2022-10-22T22:21:26.856Z,11.23
2022-10-22T22:23:54.564Z,11.32
2022-10-22T22:26:28.306Z,11.27
2022-10-22T22:28:59.299Z,11.12
2022-10-22T22:31:29.331Z,11.02
2022-10-22T22:34:08.434Z,11.01
2022-10-22T22:36:38.553Z,11.06
2022-10-22T22:39:08.666Z,11.05
2022-10-22T22:41:36.231Z,11.12
2022-10-22T22:44:04.170Z,11.10
2022-10-22T22:46:31.703Z,11.07
2022-10-22T22:48:59.442Z,11.07
2022-10-22T22:51:26.964Z,11.02
2022-10-22T22:53:54.658Z,11.05
2022-10-22T22:56:25.058Z,11.03
2022-10-22T22:58:52.873Z,11.02
2022-10-22T23:01:33.409Z,10.97
2022-10-22T23:04:07.389Z,11.02
2022-10-22T23:06:36.311Z,11.07
2022-10-22T23:09:06.257Z,11.06
2022-10-22T23:11:34.111Z,10.97
2022-10-22T23:14:04.474Z,10.86
2022-10-22T23:16:35.292Z,10.86
2022-10-22T23:19:04.877Z,10.91
2022-10-22T23:21:35.834Z,10.94
2022-10-22T23:24:07.055Z,10.97
2022-10-22T23:26:38.928Z,10.94
2022-10-22T23:29:10.913Z,10.77
2022-10-22T23:31:38.582Z,10.73
2022-10-22T23:34:07.272Z,10.71
2022-10-22T23:36:37.135Z,10.74
2022-10-22T23:39:09.105Z,10.74
2022-10-22T23:41:37.069Z,10.77
2022-10-22T23:44:05.811Z,10.82
2022-10-22T23:46:33.509Z,10.77
2022-10-22T23:49:01.498Z,10.76
2022-10-22T23:51:29.318Z,10.86
2022-10-22T23:53:59.558Z,10.87
2022-10-22T23:56:28.260Z,10.75
2022-10-22T23:58:56.133Z,10.89
